createdAt,value
2022-09-13T00:03:52.422Z,23.90
2022-09-13T00:07:21.598Z,23.20
2022-09-13T00:10:55.900Z,24.00
2022-09-13T00:14:23.071Z,24.00
2022-09-13T00:17:50.119Z,21.10
2022-09-13T00:21:19.085Z,21.40
2022-09-13T00:24:45.988Z,21.80
2022-09-13T00:28:12.858Z,21.40
2022-09-13T00:31:58.691Z,20.50
2022-09-13T00:35:37.170Z,21.90
2022-09-13T00:39:22.929Z,21.20
2022-09-13T00:42:50.219Z,21.70
2022-09-13T00:46:23.696Z,20.70
2022-09-13T00:49:52.177Z,20.00
2022-09-13T00:53:23.215Z,20.80
2022-09-13T00:56:53.906Z,19.70
2022-09-13T01:00:22.372Z,22.10
2022-09-13T01:03:59.349Z,22.90
2022-09-13T01:07:26.247Z,23.10
2022-09-13T01:10:58.669Z,21.30
2022-09-13T01:14:26.776Z,24.00
2022-09-13T01:17:59.179Z,24.70
2022-09-13T01:22:01.937Z,24.80
2022-09-13T01:26:03.294Z,25.10
2022-09-13T01:30:11.004Z,24.90
2022-09-13T01:33:53.405Z,25.20
2022-09-13T01:37:42.087Z,26.40
2022-09-13T01:41:23.046Z,25.40
2022-09-13T01:45:05.711Z,26.40
2022-09-13T01:49:03.023Z,25.90
2022-09-13T01:52:46.670Z,28.20
2022-09-13T01:56:29.142Z,27.40
2022-09-13T02:00:02.167Z,27.00
2022-09-13T02:03:44.537Z,29.40
2022-09-13T02:07:17.744Z,27.80
2022-09-13T02:11:01.460Z,29.00
2022-09-13T02:14:36.976Z,29.70
2022-09-13T02:18:11.118Z,27.80
2022-09-13T02:21:44.621Z,25.90
2022-09-13T02:25:15.854Z,25.20
2022-09-13T02:28:48.959Z,24.00
2022-09-13T02:32:22.919Z,27.30
2022-09-13T02:36:03.986Z,25.20
2022-09-13T02:39:33.752Z,24.90
2022-09-13T02:47:00.865Z,22.90
2022-09-13T02:50:42.823Z,23.10
2022-09-13T02:54:17.459Z,22.60
2022-09-13T02:58:01.249Z,20.70
2022-09-13T03:01:28.974Z,21.60
2022-09-13T03:04:56.384Z,22.80
2022-09-13T03:08:25.202Z,21.30
2022-09-13T03:12:30.153Z,21.50
2022-09-13T03:16:06.819Z,20.50
2022-09-13T03:19:49.513Z,20.40
2022-09-13T03:23:41.027Z,20.50
2022-09-13T03:27:20.739Z,20.80
2022-09-13T03:30:52.547Z,20.70
2022-09-13T03:34:31.649Z,20.90
2022-09-13T03:38:06.788Z,20.60
2022-09-13T03:41:43.096Z,22.40
2022-09-13T03:45:16.309Z,22.80
2022-09-13T03:48:47.506Z,25.10
2022-09-13T03:52:14.719Z,25.60
2022-09-13T03:55:44.140Z,27.50
2022-09-13T03:59:11.378Z,27.90
2022-09-13T04:02:38.577Z,24.40
2022-09-13T04:06:54.480Z,25.90
2022-09-13T04:10:21.840Z,24.90
2022-09-13T04:13:48.960Z,25.10
2022-09-13T04:17:17.360Z,24.90
2022-09-13T04:20:44.334Z,27.10
2022-09-13T04:24:11.080Z,25.20
2022-09-13T04:27:37.899Z,25.40
2022-09-13T04:31:04.894Z,24.40
2022-09-13T04:34:31.682Z,23.90
2022-09-13T04:37:59.587Z,24.00
2022-09-13T04:41:26.533Z,25.60
2022-09-13T04:44:53.103Z,25.80
2022-09-13T04:48:20.526Z,25.40
2022-09-13T04:51:47.558Z,25.70
2022-09-13T04:55:14.480Z,26.70
2022-09-13T04:58:41.412Z,25.70
2022-09-13T05:02:08.460Z,25.70
2022-09-13T05:05:35.343Z,23.60
2022-09-13T05:09:02.125Z,25.20
2022-09-13T05:12:29.418Z,23.60
2022-09-13T05:15:58.977Z,24.80
2022-09-13T05:19:26.058Z,23.80
2022-09-13T05:22:52.778Z,23.90
2022-09-13T05:26:20.148Z,21.40
2022-09-13T05:29:46.969Z,22.00
2022-09-13T05:33:13.873Z,20.60
2022-09-13T05:36:41.574Z,20.30
2022-09-13T05:40:12.095Z,21.10
2022-09-13T05:43:40.219Z,20.10
2022-09-13T05:47:07.936Z,20.00
2022-09-13T05:50:57.307Z,17.90
2022-09-13T05:54:25.135Z,16.30
2022-09-13T05:57:52.047Z,14.40
2022-09-13T06:01:21.729Z,13.30
2022-09-13T06:04:48.424Z,12.70
2022-09-13T06:08:15.235Z,12.80
2022-09-13T06:11:42.523Z,12.10
2022-09-13T06:15:12.111Z,12.50
2022-09-13T06:18:39.328Z,11.10
2022-09-13T06:22:06.324Z,10.80
2022-09-13T06:25:33.258Z,10.90
2022-09-13T06:29:00.602Z,9.60
2022-09-13T06:32:27.421Z,9.30
2022-09-13T06:35:54.134Z,9.00
2022-09-13T06:39:21.094Z,8.70
2022-09-13T06:42:47.795Z,9.00
2022-09-13T06:46:18.591Z,8.20
2022-09-13T06:49:47.378Z,7.60
2022-09-13T06:53:14.417Z,8.40
2022-09-13T06:56:41.644Z,8.90
2022-09-13T07:00:11.917Z,7.80
2022-09-13T07:03:39.622Z,8.30
2022-09-13T07:07:06.604Z,8.00
2022-09-13T07:10:33.282Z,9.00
2022-09-13T07:14:01.149Z,8.10
2022-09-13T07:17:31.277Z,9.00
2022-09-13T07:21:03.597Z,9.00
2022-09-13T07:24:30.961Z,8.20
2022-09-13T07:27:58.596Z,8.60
2022-09-13T07:31:27.588Z,9.10
2022-09-13T07:34:54.689Z,8.30
2022-09-13T07:38:21.579Z,7.60
2022-09-13T07:41:48.744Z,7.80
2022-09-13T07:45:15.706Z,8.40
2022-09-13T07:48:45.022Z,7.70
2022-09-13T07:52:12.176Z,8.00
2022-09-13T07:55:39.206Z,7.90
2022-09-13T07:59:08.476Z,7.80
2022-09-13T08:02:37.505Z,7.80
2022-09-13T08:06:05.243Z,7.40
2022-09-13T08:09:32.037Z,7.00
2022-09-13T08:13:00.315Z,7.10
2022-09-13T08:16:28.803Z,7.50
2022-09-13T08:19:55.629Z,7.10
2022-09-13T08:23:22.432Z,7.40
2022-09-13T08:26:52.123Z,7.60
2022-09-13T08:30:19.498Z,6.90
2022-09-13T08:33:48.530Z,6.10
2022-09-13T08:37:15.511Z,5.80
2022-09-13T08:40:46.272Z,5.60
2022-09-13T08:44:18.309Z,5.60
2022-09-13T08:47:49.166Z,6.10
2022-09-13T08:51:30.120Z,6.00
2022-09-13T08:54:58.577Z,6.80
2022-09-13T08:58:50.189Z,6.90
2022-09-13T09:02:28.090Z,6.90
2022-09-13T09:05:54.947Z,7.50
2022-09-13T09:09:23.721Z,7.30
2022-09-13T09:12:55.045Z,7.30
2022-09-13T09:16:34.654Z,7.40
2022-09-13T09:20:08.863Z,7.30
2022-09-13T09:23:40.802Z,7.20
2022-09-13T09:27:17.990Z,7.30
2022-09-13T09:30:56.107Z,8.50
2022-09-13T09:34:31.293Z,7.50
2022-09-13T09:38:15.931Z,7.90
2022-09-13T09:41:44.335Z,7.90
2022-09-13T09:45:27.337Z,8.80
2022-09-13T09:48:57.995Z,7.20
2022-09-13T09:52:30.821Z,8.30
2022-09-13T09:56:04.382Z,8.70
2022-09-13T09:59:33.832Z,9.60
2022-09-13T10:06:30.157Z,8.50
2022-09-13T10:10:03.340Z,8.90
2022-09-13T10:13:32.580Z,8.70
2022-09-13T10:17:17.688Z,9.30
2022-09-13T10:21:00.652Z,8.40
2022-09-13T10:24:28.650Z,8.10
2022-09-13T10:27:58.167Z,8.20
2022-09-13T10:31:32.853Z,7.40
2022-09-13T10:35:04.572Z,7.40
2022-09-13T10:38:36.041Z,6.60
2022-09-13T10:42:06.516Z,7.20
2022-09-13T10:45:34.571Z,8.00
2022-09-13T10:49:02.441Z,7.20
2022-09-13T10:52:43.687Z,7.00
2022-09-13T10:56:22.944Z,7.80
2022-09-13T10:59:55.746Z,7.90
2022-09-13T11:03:36.998Z,7.90
2022-09-13T11:07:19.065Z,7.00
2022-09-13T11:10:58.591Z,7.20
2022-09-13T11:18:21.069Z,7.30
2022-09-13T11:22:09.071Z,8.10
2022-09-13T11:25:50.905Z,9.60
2022-09-13T11:29:32.509Z,7.90
2022-09-13T11:33:21.988Z,8.20
2022-09-13T11:37:01.501Z,7.60
2022-09-13T11:44:20.798Z,6.90
2022-09-13T11:48:09.962Z,8.10
2022-09-13T11:51:51.785Z,8.20
2022-09-13T11:55:24.812Z,9.70
2022-09-13T11:58:55.927Z,9.00
2022-09-13T12:02:30.537Z,9.10
2022-09-13T12:06:03.033Z,9.30
2022-09-13T12:09:36.443Z,9.50
2022-09-13T12:13:05.994Z,10.00
2022-09-13T12:20:07.266Z,8.70
2022-09-13T12:23:37.204Z,8.50
2022-09-13T12:27:10.682Z,9.20
2022-09-13T12:30:48.685Z,8.90
2022-09-13T12:34:24.413Z,8.60
2022-09-13T12:38:16.273Z,8.70
2022-09-13T12:41:54.469Z,8.70
2022-09-13T12:45:40.183Z,8.50
2022-09-13T12:49:19.990Z,7.90
2022-09-13T12:52:57.743Z,8.30
2022-09-13T12:56:40.960Z,8.30
2022-09-13T13:00:26.232Z,7.10
2022-09-13T13:03:57.585Z,8.20
2022-09-13T13:07:26.412Z,8.50
2022-09-13T13:11:06.172Z,7.60
2022-09-13T13:14:47.697Z,7.80
2022-09-13T13:18:29.514Z,7.30
2022-09-13T13:21:56.725Z,7.10
2022-09-13T13:25:39.650Z,7.50
2022-09-13T13:29:16.951Z,7.70
2022-09-13T13:33:07.544Z,7.40
2022-09-13T13:36:48.961Z,6.90
2022-09-13T13:40:30.444Z,7.50
2022-09-13T13:43:57.895Z,8.00
2022-09-13T13:47:56.207Z,8.10
2022-09-13T13:51:25.248Z,8.10
2022-09-13T13:55:04.954Z,7.90
2022-09-13T13:58:44.853Z,7.90
2022-09-13T14:02:18.974Z,7.60
2022-09-13T14:05:53.230Z,8.00
2022-09-13T14:09:36.691Z,8.20
2022-09-13T14:13:22.742Z,8.60
2022-09-13T14:17:02.294Z,7.70
2022-09-13T14:20:29.575Z,7.80
2022-09-13T14:24:18.045Z,7.80
2022-09-13T14:27:46.792Z,8.00
2022-09-13T14:31:21.206Z,8.20
2022-09-13T14:34:57.286Z,7.40
2022-09-13T14:38:31.007Z,7.90
2022-09-13T14:42:13.512Z,6.70
2022-09-13T14:45:41.698Z,8.00
2022-09-13T14:49:16.333Z,7.10
2022-09-13T14:52:49.968Z,7.40
2022-09-13T14:56:30.133Z,7.20
2022-09-13T15:00:00.629Z,7.20
2022-09-13T15:03:29.195Z,6.90
2022-09-13T15:07:11.127Z,6.90
2022-09-13T15:10:45.863Z,7.40
2022-09-13T15:14:32.886Z,8.40
2022-09-13T15:18:01.957Z,8.20
2022-09-13T15:21:29.963Z,8.60
2022-09-13T15:24:59.572Z,8.50
2022-09-13T15:32:01.545Z,8.50
2022-09-13T15:35:35.196Z,8.70
2022-09-13T15:39:05.300Z,8.50
2022-09-13T15:42:31.958Z,9.00
2022-09-13T15:46:01.838Z,9.10
2022-09-13T15:49:29.705Z,9.20
2022-09-13T15:52:57.135Z,9.50
2022-09-13T15:56:35.513Z,10.10
2022-09-13T16:00:06.345Z,10.90
2022-09-13T16:03:36.525Z,11.60
2022-09-13T16:07:03.197Z,10.90
2022-09-13T16:10:31.627Z,12.10
2022-09-13T16:13:58.300Z,11.00
2022-09-13T16:17:26.856Z,10.80
2022-09-13T16:20:55.184Z,11.10
2022-09-13T16:24:23.979Z,10.90
2022-09-13T16:27:51.190Z,10.60
2022-09-13T16:31:20.197Z,10.40
2022-09-13T16:34:47.696Z,11.20
2022-09-13T16:38:15.427Z,10.90
2022-09-13T16:41:42.683Z,11.00
2022-09-13T16:45:11.896Z,11.70
2022-09-13T16:48:38.957Z,11.80
2022-09-13T16:52:05.834Z,11.90
2022-09-13T16:55:32.961Z,12.60
2022-09-13T16:58:59.845Z,12.50
2022-09-13T17:02:27.747Z,13.10
2022-09-13T17:06:02.816Z,13.10
2022-09-13T17:09:31.208Z,14.20
2022-09-13T17:12:58.871Z,14.30
2022-09-13T17:16:30.095Z,13.80
2022-09-13T17:19:59.101Z,15.50
2022-09-13T17:23:27.052Z,14.40
2022-09-13T17:26:54.867Z,15.00
2022-09-13T17:30:22.578Z,15.30
2022-09-13T17:33:51.024Z,16.30
2022-09-13T17:37:18.652Z,16.60
2022-09-13T17:40:46.770Z,15.60
2022-09-13T17:44:15.334Z,16.80
2022-09-13T17:47:43.177Z,17.00
2022-09-13T17:51:12.745Z,16.80
2022-09-13T17:54:40.922Z,17.20
2022-09-13T17:58:08.517Z,17.90
2022-09-13T18:01:36.912Z,18.10
2022-09-13T18:05:07.024Z,17.60
2022-09-13T18:08:39.286Z,18.20
2022-09-13T18:12:07.745Z,18.10
2022-09-13T18:15:35.413Z,18.70
2022-09-13T18:19:04.071Z,19.40
2022-09-13T18:22:32.106Z,20.80
2022-09-13T18:26:09.983Z,21.00
2022-09-13T18:29:38.526Z,22.00
2022-09-13T18:33:10.863Z,21.20
2022-09-13T18:36:40.455Z,21.60
2022-09-13T18:40:15.204Z,24.80
2022-09-13T18:43:44.478Z,21.40
2022-09-13T18:47:13.888Z,21.70
2022-09-13T18:50:46.386Z,20.40
2022-09-13T18:54:16.684Z,22.30
2022-09-13T18:57:44.633Z,23.40
2022-09-13T19:01:14.993Z,25.20
2022-09-13T19:04:43.175Z,25.40
2022-09-13T19:08:14.134Z,26.60
2022-09-13T19:11:47.634Z,26.80
2022-09-13T19:15:16.274Z,28.00
2022-09-13T19:18:45.313Z,28.20
2022-09-13T19:22:13.370Z,29.30
2022-09-13T19:25:41.135Z,27.60
2022-09-13T19:29:10.803Z,30.50
2022-09-13T19:32:38.623Z,32.70
2022-09-13T19:36:09.101Z,33.20
2022-09-13T19:39:36.827Z,31.00
2022-09-13T19:43:04.789Z,29.70
2022-09-13T19:46:34.727Z,29.70
2022-09-13T19:50:02.598Z,28.50
2022-09-13T19:53:53.336Z,28.80
2022-09-13T19:57:16.844Z,29.00
2022-09-13T20:00:45.185Z,26.60
2022-09-13T20:04:14.578Z,26.70
2022-09-13T20:07:44.592Z,26.20
2022-09-13T20:11:14.625Z,25.40
2022-09-13T20:14:41.512Z,26.60
2022-09-13T20:18:13.549Z,27.70
2022-09-13T20:21:40.720Z,27.10
2022-09-13T20:25:10.411Z,28.90
2022-09-13T20:28:37.089Z,27.20
2022-09-13T20:32:04.505Z,27.70
2022-09-13T20:35:32.332Z,26.70
2022-09-13T20:39:03.167Z,27.90
2022-09-13T20:42:30.842Z,28.60
2022-09-13T20:45:58.954Z,27.90
2022-09-13T20:49:26.356Z,28.30
2022-09-13T20:52:53.274Z,26.20
2022-09-13T20:56:21.086Z,26.60
2022-09-13T20:59:47.905Z,25.90
2022-09-13T21:03:15.514Z,26.60
2022-09-13T21:07:03.746Z,26.00
2022-09-13T21:10:31.561Z,25.60
2022-09-13T21:14:00.115Z,27.00
2022-09-13T21:17:27.201Z,25.50
2022-09-13T21:20:58.864Z,26.70
2022-09-13T21:24:25.580Z,25.60
2022-09-13T21:27:52.522Z,25.90
2022-09-13T21:31:22.683Z,27.10
2022-09-13T21:34:49.693Z,27.00
2022-09-13T21:38:16.515Z,26.70
2022-09-13T21:41:44.102Z,26.90
2022-09-13T21:45:12.915Z,28.20
2022-09-13T21:48:40.511Z,27.20
2022-09-13T21:52:08.039Z,26.50
2022-09-13T21:55:39.991Z,27.70
2022-09-13T21:59:09.598Z,27.50
2022-09-13T22:02:37.429Z,28.00
2022-09-13T22:06:05.208Z,28.30
2022-09-13T22:09:32.522Z,28.40
2022-09-13T22:12:59.279Z,27.80
2022-09-13T22:16:27.827Z,27.30
2022-09-13T22:19:54.672Z,27.20
2022-09-13T22:23:21.402Z,29.00
2022-09-13T22:26:49.568Z,28.90
2022-09-13T22:30:16.891Z,28.20
2022-09-13T22:33:44.364Z,28.40
2022-09-13T22:37:11.138Z,28.20
2022-09-13T22:40:37.887Z,28.60
2022-09-13T22:44:05.890Z,29.50
2022-09-13T22:47:32.559Z,29.20
2022-09-13T22:50:59.894Z,30.20
2022-09-13T22:54:28.676Z,30.30
2022-09-13T22:57:56.669Z,31.80
2022-09-13T23:01:24.601Z,30.10
2022-09-13T23:04:51.417Z,31.20
2022-09-13T23:08:18.282Z,30.70
2022-09-13T23:11:45.291Z,28.60
2022-09-13T23:15:13.681Z,28.90
2022-09-13T23:18:40.963Z,29.70
2022-09-13T23:22:07.731Z,27.70
2022-09-13T23:25:35.784Z,26.70
2022-09-13T23:29:04.335Z,28.30
2022-09-13T23:32:31.785Z,26.40
2022-09-13T23:36:01.579Z,25.50
2022-09-13T23:39:28.604Z,23.90
2022-09-13T23:42:55.277Z,25.00
2022-09-13T23:46:22.747Z,25.60
2022-09-13T23:49:49.746Z,24.90
2022-09-13T23:53:16.848Z,25.70
2022-09-13T23:56:43.990Z,24.20
